Lackland, Texas
Current Conditions -  °F | °C
As of 8:58 PM on Monday 22 Dec 2014 (Local Time) from KSKF Reporting Station
Clear Clear  
Wind Chill: 56°   Ceiling: Unl
Heat Index: 56°   Visibility: 10mi
Dew Point: 53°   Wind: 5mph
Humidity: 87%   Direction: 20°NNE
Pressure: 29.63"   Gusts: NA
Location:  29.3853°N, 98.6099°W
Report Text: KSKF 230258Z AUTO 02004KT 10SM CLR 14/12 A2963 RMK AO2 SLP032 T01360115 53006 $
Loading
Personal Weather Stations






























Interactive Weather Map New forecast layout! Learn more

10-Day Weather Forecast

Advertisements
Track Severe Weather on mobile